sensor_id;sensor_type;location;lat;lon;timestamp;pressure;altitude;pressure_sealevel;temperature;humidity
80323;BME280;69636;52.372;13.610;2024-01-16T00:00:04;99758.66;;;-1.39;100.00
80323;BME280;69636;52.372;13.610;2024-01-16T00:02:33;99767.19;;;-1.37;100.00
80323;BME280;69636;52.372;13.610;2024-01-16T00:05:01;99769.06;;;-1.39;100.00
80323;BME280;69636;52.372;13.610;2024-01-16T00:07:28;99768.84;;;-1.35;100.00
80323;BME280;69636;52.372;13.610;2024-01-16T00:09:55;99776.88;;;-1.39;100.00
80323;BME280;69636;52.372;13.610;2024-01-16T00:12:23;99777.06;;;-1.42;100.00
80323;BME280;69636;52.372;13.610;2024-01-16T00:14:50;99781.13;;;-1.38;100.00
80323;BME280;69636;52.372;13.610;2024-01-16T00:17:17;99792.06;;;-1.45;100.00
80323;BME280;69636;52.372;13.610;2024-01-16T00:19:46;99786.09;;;-1.47;100.00
80323;BME280;69636;52.372;13.610;2024-01-16T00:22:13;99795.88;;;-1.51;100.00
80323;BME280;69636;52.372;13.610;2024-01-16T00:24:40;99808.16;;;-1.53;100.00
80323;BME280;69636;52.372;13.610;2024-01-16T00:27:08;99810.34;;;-1.59;100.00
80323;BME280;69636;52.372;13.610;2024-01-16T00:29:38;99811.47;;;-1.63;100.00
80323;BME280;69636;52.372;13.610;2024-01-16T00:32:05;99804.31;;;-1.60;100.00
80323;BME280;69636;52.372;13.610;2024-01-16T00:34:32;99797.16;;;-1.56;100.00
80323;BME280;69636;52.372;13.610;2024-01-16T00:37:01;99792.78;;;-1.43;100.00
80323;BME280;69636;52.372;13.610;2024-01-16T00:39:28;99790.28;;;-1.45;100.00
80323;BME280;69636;52.372;13.610;2024-01-16T00:41:56;99797.44;;;-1.48;100.00
80323;BME280;69636;52.372;13.610;2024-01-16T00:44:23;99786.41;;;-1.52;100.00
80323;BME280;69636;52.372;13.610;2024-01-16T00:46:50;99790.09;;;-1.42;100.00
80323;BME280;69636;52.372;13.610;2024-01-16T00:49:18;99797.34;;;-1.47;100.00
80323;BME280;69636;52.372;13.610;2024-01-16T00:51:48;99799.22;;;-1.49;100.00
80323;BME280;69636;52.372;13.610;2024-01-16T00:54:16;99803.41;;;-1.46;100.00
80323;BME280;69636;52.372;13.610;2024-01-16T00:56:44;99797.91;;;-1.42;100.00
80323;BME280;69636;52.372;13.610;2024-01-16T00:59:11;99793.97;;;-1.34;100.00
80323;BME280;69636;52.372;13.610;2024-01-16T01:01:38;99801.53;;;-1.44;100.00
80323;BME280;69636;52.372;13.610;2024-01-16T01:04:06;99806.78;;;-1.31;100.00
80323;BME280;69636;52.372;13.610;2024-01-16T01:06:35;99817.59;;;-1.38;100.00
80323;BME280;69636;52.372;13.610;2024-01-16T01:09:02;99814.44;;;-1.43;100.00
80323;BME280;69636;52.372;13.610;2024-01-16T01:11:31;99817.19;;;-1.31;100.00
80323;BME280;69636;52.372;13.610;2024-01-16T01:13:58;99829.47;;;-1.33;100.00
80323;BME280;69636;52.372;13.610;2024-01-16T01:16:25;99839.63;;;-1.43;100.00
80323;BME280;69636;52.372;13.610;2024-01-16T01:18:52;99832.75;;;-1.44;100.00
80323;BME280;69636;52.372;13.610;2024-01-16T01:21:20;99849.22;;;-1.44;100.00
80323;BME280;69636;52.372;13.610;2024-01-16T01:23:47;99852.59;;;-1.56;100.00
80323;BME280;69636;52.372;13.610;2024-01-16T01:26:15;99849.81;;;-1.53;100.00
80323;BME280;69636;52.372;13.610;2024-01-16T01:28:43;99855.72;;;-1.24;100.00
80323;BME280;69636;52.372;13.610;2024-01-16T01:31:11;99857.72;;;-1.54;100.00
80323;BME280;69636;52.372;13.610;2024-01-16T01:33:39;99862.03;;;-1.41;100.00
80323;BME280;69636;52.372;13.610;2024-01-16T01:36:06;99859.38;;;-1.53;100.00
80323;BME280;69636;52.372;13.610;2024-01-16T01:38:34;99867.28;;;-1.55;100.00
80323;BME280;69636;52.372;13.610;2024-01-16T01:41:01;99882.28;;;-1.58;100.00
80323;BME280;69636;52.372;13.610;2024-01-16T01:43:29;99886.31;;;-1.81;100.00
80323;BME280;69636;52.372;13.610;2024-01-16T01:46:08;99897.56;;;-1.81;100.00
80323;BME280;69636;52.372;13.610;2024-01-16T01:48:37;99913.28;;;-1.96;100.00
80323;BME280;69636;52.372;13.610;2024-01-16T01:51:05;99904.66;;;-1.83;100.00
80323;BME280;69636;52.372;13.610;2024-01-16T01:53:33;99896.66;;;-1.94;100.00
80323;BME280;69636;52.372;13.610;2024-01-16T01:56:04;99895.38;;;-2.01;100.00
80323;BME280;69636;52.372;13.610;2024-01-16T01:58:32;99898.25;;;-2.06;100.00
80323;BME280;69636;52.372;13.610;2024-01-16T02:01:01;99895.38;;;-2.01;100.00
80323;BME280;69636;52.372;13.610;2024-01-16T02:03:32;99902.41;;;-2.03;100.00
80323;BME280;69636;52.372;13.610;2024-01-16T02:06:02;99909.03;;;-2.12;100.00
80323;BME280;69636;52.372;13.610;2024-01-16T02:08:30;99909.28;;;-2.02;100.00
80323;BME280;69636;52.372;13.610;2024-01-16T02:10:57;99906.38;;;-1.69;100.00
80323;BME280;69636;52.372;13.610;2024-01-16T02:13:24;99906.59;;;-1.86;100.00
80323;BME280;69636;52.372;13.610;2024-01-16T02:15:52;99910.91;;;-2.14;100.00
80323;BME280;69636;52.372;13.610;2024-01-16T02:18:20;99916.91;;;-2.27;100.00
80323;BME280;69636;52.372;13.610;2024-01-16T02:20:48;99922.03;;;-2.40;100.00
80323;BME280;69636;52.372;13.610;2024-01-16T02:23:15;99916.91;;;-2.56;100.00
80323;BME280;69636;52.372;13.610;2024-01-16T02:25:47;99922.19;;;-2.57;100.00
80323;BME280;69636;52.372;13.610;2024-01-16T02:28:14;99921.91;;;-2.67;100.00
80323;BME280;69636;52.372;13.610;2024-01-16T02:30:42;99921.25;;;-2.70;100.00
80323;BME280;69636;52.372;13.610;2024-01-16T02:33:09;99935.34;;;-2.75;100.00
80323;BME280;69636;52.372;13.610;2024-01-16T02:35:36;99944.53;;;-2.69;100.00
80323;BME280;69636;52.372;13.610;2024-01-16T02:38:04;99956.13;;;-2.75;100.00
80323;BME280;69636;52.372;13.610;2024-01-16T02:40:31;99956.47;;;-2.81;100.00
80323;BME280;69636;52.372;13.610;2024-01-16T02:43:00;99954.03;;;-2.84;100.00
80323;BME280;69636;52.372;13.610;2024-01-16T02:45:27;99957.84;;;-2.89;100.00
80323;BME280;69636;52.372;13.610;2024-01-16T02:47:54;99958.53;;;-3.01;100.00
80323;BME280;69636;52.372;13.610;2024-01-16T02:50:22;99955.53;;;-3.10;100.00
80323;BME280;69636;52.372;13.610;2024-01-16T02:52:49;99972.13;;;-3.12;100.00
80323;BME280;69636;52.372;13.610;2024-01-16T02:55:17;99979.50;;;-3.20;100.00
80323;BME280;69636;52.372;13.610;2024-01-16T02:57:44;99985.38;;;-3.17;100.00
80323;BME280;69636;52.372;13.610;2024-01-16T03:00:14;99978.97;;;-3.11;100.00
80323;BME280;69636;52.372;13.610;2024-01-16T03:02:41;99974.03;;;-3.00;100.00
80323;BME280;69636;52.372;13.610;2024-01-16T03:05:09;99989.34;;;-2.95;100.00
80323;BME280;69636;52.372;13.610;2024-01-16T03:07:36;100002.41;;;-2.97;100.00
80323;BME280;69636;52.372;13.610;2024-01-16T03:10:04;100004.59;;;-2.89;100.00
80323;BME280;69636;52.372;13.610;2024-01-16T03:12:31;100002.63;;;-2.86;100.00
80323;BME280;69636;52.372;13.610;2024-01-16T03:14:59;100003.38;;;-2.84;100.00
80323;BME280;69636;52.372;13.610;2024-01-16T03:17:27;100009.63;;;-2.86;100.00
80323;BME280;69636;52.372;13.610;2024-01-16T03:19:55;100017.50;;;-2.88;100.00
80323;BME280;69636;52.372;13.610;2024-01-16T03:22:22;100026.19;;;-2.89;100.00
80323;BME280;69636;52.372;13.610;2024-01-16T03:24:49;100039.09;;;-2.87;100.00
80323;BME280;69636;52.372;13.610;2024-01-16T03:27:16;100040.28;;;-2.93;100.00
80323;BME280;69636;52.372;13.610;2024-01-16T03:29:44;100025.69;;;-2.95;100.00
80323;BME280;69636;52.372;13.610;2024-01-16T03:32:12;100019.16;;;-2.87;100.00
80323;BME280;69636;52.372;13.610;2024-01-16T03:34:41;100022.84;;;-2.91;100.00
80323;BME280;69636;52.372;13.610;2024-01-16T03:37:08;100042.47;;;-3.01;100.00
80323;BME280;69636;52.372;13.610;2024-01-16T03:39:35;100043.63;;;-3.07;100.00
80323;BME280;69636;52.372;13.610;2024-01-16T03:42:03;100047.13;;;-3.08;100.00
80323;BME280;69636;52.372;13.610;2024-01-16T03:44:30;100042.03;;;-3.09;100.00
80323;BME280;69636;52.372;13.610;2024-01-16T03:46:57;100046.31;;;-3.08;100.00
80323;BME280;69636;52.372;13.610;2024-01-16T03:49:25;100053.16;;;-3.07;100.00
80323;BME280;69636;52.372;13.610;2024-01-16T03:51:53;100068.66;;;-3.05;100.00
80323;BME280;69636;52.372;13.610;2024-01-16T03:54:21;100062.47;;;-3.03;100.00
80323;BME280;69636;52.372;13.610;2024-01-16T03:56:48;100076.38;;;-3.04;100.00
80323;BME280;69636;52.372;13.610;2024-01-16T03:59:15;100081.88;;;-3.10;100.00
80323;BME280;69636;52.372;13.610;2024-01-16T04:01:43;100080.31;;;-2.97;100.00
80323;BME280;69636;52.372;13.610;2024-01-16T04:04:10;100080.91;;;-2.92;100.00
80323;BME280;69636;52.372;13.610;2024-01-16T04:06:37;100082.16;;;-2.99;100.00
80323;BME280;69636;52.372;13.610;2024-01-16T04:09:07;100079.41;;;-2.96;100.00
80323;BME280;69636;52.372;13.610;2024-01-16T04:11:35;100087.19;;;-2.96;100.00
80323;BME280;69636;52.372;13.610;2024-01-16T04:14:02;100084.34;;;-2.91;100.00
80323;BME280;69636;52.372;13.610;2024-01-16T04:16:29;100091.88;;;-2.87;100.00
80323;BME280;69636;52.372;13.610;2024-01-16T04:18:57;100087.84;;;-2.92;100.00
80323;BME280;69636;52.372;13.610;2024-01-16T04:21:24;100093.19;;;-3.11;100.00
80323;BME280;69636;52.372;13.610;2024-01-16T04:23:51;100100.59;;;-3.19;100.00
80323;BME280;69636;52.372;13.610;2024-01-16T04:26:20;100090.19;;;-3.19;100.00
80323;BME280;69636;52.372;13.610;2024-01-16T04:28:47;100095.78;;;-3.11;100.00
80323;BME280;69636;52.372;13.610;2024-01-16T04:31:15;100103.41;;;-3.08;100.00
80323;BME280;69636;52.372;13.610;2024-01-16T04:33:42;100097.56;;;-3.12;100.00
80323;BME280;69636;52.372;13.610;2024-01-16T04:36:09;100102.25;;;-3.18;100.00
80323;BME280;69636;52.372;13.610;2024-01-16T04:38:37;100111.53;;;-3.30;100.00
80323;BME280;69636;52.372;13.610;2024-01-16T04:41:04;100115.47;;;-3.38;100.00
80323;BME280;69636;52.372;13.610;2024-01-16T04:43:33;100105.94;;;-3.38;100.00
80323;BME280;69636;52.372;13.610;2024-01-16T04:46:00;100100.91;;;-3.25;100.00
80323;BME280;69636;52.372;13.610;2024-01-16T04:48:30;100118.97;;;-3.39;100.00
80323;BME280;69636;52.372;13.610;2024-01-16T04:50:57;100115.94;;;-3.48;100.00
80323;BME280;69636;52.372;13.610;2024-01-16T04:53:25;100120.69;;;-3.56;100.00
80323;BME280;69636;52.372;13.610;2024-01-16T04:55:52;100114.56;;;-3.55;100.00
80323;BME280;69636;52.372;13.610;2024-01-16T04:58:19;100115.66;;;-3.59;100.00
80323;BME280;69636;52.372;13.610;2024-01-16T05:00:48;100114.38;;;-3.67;100.00
80323;BME280;69636;52.372;13.610;2024-01-16T05:03:16;100119.72;;;-3.70;100.00
80323;BME280;69636;52.372;13.610;2024-01-16T05:05:43;100121.25;;;-3.66;100.00
80323;BME280;69636;52.372;13.610;2024-01-16T05:08:11;100121.59;;;-3.57;100.00
80323;BME280;69636;52.372;13.610;2024-01-16T05:10:38;100118.84;;;-3.54;100.00
80323;BME280;69636;52.372;13.610;2024-01-16T05:13:07;100122.50;;;-3.58;100.00
80323;BME280;69636;52.372;13.610;2024-01-16T05:15:34;100123.66;;;-3.63;100.00
80323;BME280;69636;52.372;13.610;2024-01-16T05:18:03;100129.94;;;-3.67;100.00
80323;BME280;69636;52.372;13.610;2024-01-16T05:20:31;100141.31;;;-3.70;100.00
80323;BME280;69636;52.372;13.610;2024-01-16T05:22:59;100147.34;;;-3.69;100.00
80323;BME280;69636;52.372;13.610;2024-01-16T05:25:26;100144.66;;;-3.68;100.00
80323;BME280;69636;52.372;13.610;2024-01-16T05:27:53;100143.00;;;-3.69;100.00
80323;BME280;69636;52.372;13.610;2024-01-16T05:30:20;100146.00;;;-3.61;100.00
80323;BME280;69636;52.372;13.610;2024-01-16T05:32:48;100139.53;;;-3.52;100.00
80323;BME280;69636;52.372;13.610;2024-01-16T05:35:16;100150.75;;;-3.52;100.00
80323;BME280;69636;52.372;13.610;2024-01-16T05:37:43;100154.16;;;-3.51;100.00
80323;BME280;69636;52.372;13.610;2024-01-16T05:40:11;100150.13;;;-3.57;100.00
80323;BME280;69636;52.372;13.610;2024-01-16T05:42:38;100156.69;;;-3.50;100.00
80323;BME280;69636;52.372;13.610;2024-01-16T05:45:07;100164.47;;;-3.50;100.00
80323;BME280;69636;52.372;13.610;2024-01-16T05:47:34;100162.94;;;-3.54;100.00
80323;BME280;69636;52.372;13.610;2024-01-16T05:50:02;100174.69;;;-3.47;100.00
80323;BME280;69636;52.372;13.610;2024-01-16T05:52:31;100171.19;;;-3.46;100.00
80323;BME280;69636;52.372;13.610;2024-01-16T05:54:58;100180.50;;;-3.42;100.00
80323;BME280;69636;52.372;13.610;2024-01-16T05:57:26;100179.22;;;-3.34;100.00
80323;BME280;69636;52.372;13.610;2024-01-16T05:59:53;100177.56;;;-3.35;100.00
80323;BME280;69636;52.372;13.610;2024-01-16T06:02:21;100175.88;;;-3.36;100.00
80323;BME280;69636;52.372;13.610;2024-01-16T06:04:48;100182.44;;;-3.29;100.00
80323;BME280;69636;52.372;13.610;2024-01-16T06:07:15;100188.00;;;-3.37;100.00
80323;BME280;69636;52.372;13.610;2024-01-16T06:09:44;100198.97;;;-3.48;100.00
80323;BME280;69636;52.372;13.610;2024-01-16T06:12:11;100200.41;;;-3.59;100.00
80323;BME280;69636;52.372;13.610;2024-01-16T06:14:38;100211.31;;;-3.53;100.00
80323;BME280;69636;52.372;13.610;2024-01-16T06:17:06;100206.06;;;-3.51;100.00
80323;BME280;69636;52.372;13.610;2024-01-16T06:19:33;100208.66;;;-3.51;100.00
80323;BME280;69636;52.372;13.610;2024-01-16T06:22:01;100207.97;;;-3.55;100.00
80323;BME280;69636;52.372;13.610;2024-01-16T06:24:31;100215.53;;;-3.50;100.00
80323;BME280;69636;52.372;13.610;2024-01-16T06:26:59;100213.31;;;-3.58;100.00
80323;BME280;69636;52.372;13.610;2024-01-16T06:29:27;100227.66;;;-3.68;100.00
80323;BME280;69636;52.372;13.610;2024-01-16T06:32:01;100228.03;;;-3.58;100.00
80323;BME280;69636;52.372;13.610;2024-01-16T06:34:29;100233.75;;;-3.52;100.00
80323;BME280;69636;52.372;13.610;2024-01-16T06:36:56;100236.97;;;-3.47;100.00
80323;BME280;69636;52.372;13.610;2024-01-16T06:39:24;100244.25;;;-3.37;100.00
80323;BME280;69636;52.372;13.610;2024-01-16T06:41:51;100241.38;;;-3.31;100.00
80323;BME280;69636;52.372;13.610;2024-01-16T06:44:20;100248.66;;;-3.38;100.00
80323;BME280;69636;52.372;13.610;2024-01-16T06:46:47;100243.53;;;-3.39;100.00
80323;BME280;69636;52.372;13.610;2024-01-16T06:49:15;100251.31;;;-3.39;100.00
80323;BME280;69636;52.372;13.610;2024-01-16T06:51:42;100238.00;;;-3.33;100.00
80323;BME280;69636;52.372;13.610;2024-01-16T06:54:10;100248.09;;;-3.27;100.00
80323;BME280;69636;52.372;13.610;2024-01-16T06:56:37;100245.38;;;-3.42;100.00
80323;BME280;69636;52.372;13.610;2024-01-16T06:59:04;100254.22;;;-3.46;100.00
80323;BME280;69636;52.372;13.610;2024-01-16T07:01:37;100254.22;;;-3.46;100.00
80323;BME280;69636;52.372;13.610;2024-01-16T07:04:05;100256.44;;;-3.38;100.00
80323;BME280;69636;52.372;13.610;2024-01-16T07:06:32;100255.25;;;-3.32;100.00
80323;BME280;69636;52.372;13.610;2024-01-16T07:08:59;100261.06;;;-3.27;100.00
80323;BME280;69636;52.372;13.610;2024-01-16T07:11:27;100262.81;;;-3.28;100.00
80323;BME280;69636;52.372;13.610;2024-01-16T07:13:54;100272.22;;;-3.25;100.00
80323;BME280;69636;52.372;13.610;2024-01-16T07:16:21;100283.06;;;-3.17;100.00
80323;BME280;69636;52.372;13.610;2024-01-16T07:18:50;100289.16;;;-3.18;100.00
80323;BME280;69636;52.372;13.610;2024-01-16T07:21:18;100293.09;;;-3.11;100.00
80323;BME280;69636;52.372;13.610;2024-01-16T07:23:45;100300.72;;;-3.08;100.00
80323;BME280;69636;52.372;13.610;2024-01-16T07:26:13;100298.41;;;-3.13;100.00
80323;BME280;69636;52.372;13.610;2024-01-16T07:28:40;100318.16;;;-3.27;100.00
80323;BME280;69636;52.372;13.610;2024-01-16T07:31:07;100321.81;;;-3.31;100.00
80323;BME280;69636;52.372;13.610;2024-01-16T07:33:35;100320.97;;;-3.32;100.00
80323;BME280;69636;52.372;13.610;2024-01-16T07:36:05;100331.06;;;-3.26;100.00
80323;BME280;69636;52.372;13.610;2024-01-16T07:38:32;100327.94;;;-3.15;100.00
80323;BME280;69636;52.372;13.610;2024-01-16T07:40:59;100323.03;;;-3.04;100.00
80323;BME280;69636;52.372;13.610;2024-01-16T07:43:27;100323.72;;;-3.00;100.00
80323;BME280;69636;52.372;13.610;2024-01-16T07:45:54;100327.16;;;-3.00;100.00
80323;BME280;69636;52.372;13.610;2024-01-16T07:48:22;100321.44;;;-2.89;100.00
80323;BME280;69636;52.372;13.610;2024-01-16T07:50:50;100320.59;;;-2.90;100.00
80323;BME280;69636;52.372;13.610;2024-01-16T07:53:19;100321.78;;;-2.80;100.00
80323;BME280;69636;52.372;13.610;2024-01-16T07:55:46;100315.97;;;-2.85;100.00
80323;BME280;69636;52.372;13.610;2024-01-16T07:58:13;100323.19;;;-2.90;100.00
80323;BME280;69636;52.372;13.610;2024-01-16T08:00:41;100332.88;;;-2.93;100.00
80323;BME280;69636;52.372;13.610;2024-01-16T08:03:09;100327.28;;;-2.86;100.00
80323;BME280;69636;52.372;13.610;2024-01-16T08:05:36;100325.22;;;-2.79;100.00
80323;BME280;69636;52.372;13.610;2024-01-16T08:08:04;100340.72;;;-2.78;100.00
80323;BME280;69636;52.372;13.610;2024-01-16T08:10:33;100339.19;;;-2.82;100.00
80323;BME280;69636;52.372;13.610;2024-01-16T08:13:00;100340.63;;;-2.76;100.00
80323;BME280;69636;52.372;13.610;2024-01-16T08:15:27;100346.47;;;-2.55;100.00
80323;BME280;69636;52.372;13.610;2024-01-16T08:17:55;100350.56;;;-2.34;100.00
80323;BME280;69636;52.372;13.610;2024-01-16T08:20:22;100337.44;;;-2.48;100.00
80323;BME280;69636;52.372;13.610;2024-01-16T08:22:50;100351.03;;;-2.43;100.00
80323;BME280;69636;52.372;13.610;2024-01-16T08:25:17;100343.84;;;-2.38;100.00
80323;BME280;69636;52.372;13.610;2024-01-16T08:27:46;100349.97;;;-2.39;100.00
80323;BME280;69636;52.372;13.610;2024-01-16T08:30:13;100356.56;;;-2.33;100.00
80323;BME280;69636;52.372;13.610;2024-01-16T08:32:41;100361.69;;;-2.32;100.00
80323;BME280;69636;52.372;13.610;2024-01-16T08:35:09;100359.44;;;-2.38;100.00
80323;BME280;69636;52.372;13.610;2024-01-16T08:37:36;100366.63;;;-2.43;100.00
80323;BME280;69636;52.372;13.610;2024-01-16T08:40:04;100366.78;;;-2.46;100.00
80323;BME280;69636;52.372;13.610;2024-01-16T08:42:32;100369.19;;;-2.26;100.00
80323;BME280;69636;52.372;13.610;2024-01-16T08:45:01;100369.00;;;-2.23;100.00
80323;BME280;69636;52.372;13.610;2024-01-16T08:47:28;100373.38;;;-2.08;100.00
80323;BME280;69636;52.372;13.610;2024-01-16T08:49:55;100368.63;;;-1.99;100.00
80323;BME280;69636;52.372;13.610;2024-01-16T08:52:23;100365.53;;;-1.90;100.00
80323;BME280;69636;52.372;13.610;2024-01-16T08:54:50;100375.00;;;-1.89;100.00
80323;BME280;69636;52.372;13.610;2024-01-16T08:57:17;100371.31;;;-1.85;100.00
80323;BME280;69636;52.372;13.610;2024-01-16T08:59:47;100372.81;;;-1.97;100.00
80323;BME280;69636;52.372;13.610;2024-01-16T09:02:15;100372.06;;;-1.83;100.00
80323;BME280;69636;52.372;13.610;2024-01-16T09:04:43;100375.94;;;-1.90;100.00
80323;BME280;69636;52.372;13.610;2024-01-16T09:07:10;100373.91;;;-1.85;100.00
80323;BME280;69636;52.372;13.610;2024-01-16T09:09:37;100372.41;;;-1.89;100.00
80323;BME280;69636;52.372;13.610;2024-01-16T09:12:05;100373.84;;;-1.84;100.00
80323;BME280;69636;52.372;13.610;2024-01-16T09:14:33;100373.56;;;-1.79;100.00
80323;BME280;69636;52.372;13.610;2024-01-16T09:17:00;100376.41;;;-1.68;100.00
80323;BME280;69636;52.372;13.610;2024-01-16T09:19:29;100380.94;;;-1.56;100.00
80323;BME280;69636;52.372;13.610;2024-01-16T09:21:56;100380.75;;;-1.53;100.00
80323;BME280;69636;52.372;13.610;2024-01-16T09:24:24;100379.28;;;-1.57;100.00
80323;BME280;69636;52.372;13.610;2024-01-16T09:26:51;100388.66;;;-1.54;100.00
80323;BME280;69636;52.372;13.610;2024-01-16T09:29:18;100388.75;;;-1.56;100.00
80323;BME280;69636;52.372;13.610;2024-01-16T09:31:46;100397.22;;;-1.52;100.00
80323;BME280;69636;52.372;13.610;2024-01-16T09:34:13;100391.69;;;-1.46;100.00
80323;BME280;69636;52.372;13.610;2024-01-16T09:36:42;100389.31;;;-1.35;100.00
80323;BME280;69636;52.372;13.610;2024-01-16T09:39:09;100388.03;;;-1.28;100.00
80323;BME280;69636;52.372;13.610;2024-01-16T09:41:37;100399.06;;;-1.39;100.00
80323;BME280;69636;52.372;13.610;2024-01-16T09:44:05;100393.03;;;-1.39;100.00
80323;BME280;69636;52.372;13.610;2024-01-16T09:46:34;100393.69;;;-1.35;100.00
80323;BME280;69636;52.372;13.610;2024-01-16T09:49:04;100394.28;;;-1.30;100.00
80323;BME280;69636;52.372;13.610;2024-01-16T09:51:32;100390.38;;;-1.23;100.00
80323;BME280;69636;52.372;13.610;2024-01-16T09:54:00;100397.94;;;-1.19;100.00
80323;BME280;69636;52.372;13.610;2024-01-16T09:56:28;100396.41;;;-1.07;100.00
80323;BME280;69636;52.372;13.610;2024-01-16T09:58:58;100393.56;;;-0.88;100.00
80323;BME280;69636;52.372;13.610;2024-01-16T10:01:30;100397.94;;;-0.89;100.00
80323;BME280;69636;52.372;13.610;2024-01-16T10:03:59;100397.19;;;-0.91;100.00
80323;BME280;69636;52.372;13.610;2024-01-16T10:06:27;100403.50;;;-0.95;100.00
80323;BME280;69636;52.372;13.610;2024-01-16T10:08:55;100402.63;;;-0.80;100.00
80323;BME280;69636;52.372;13.610;2024-01-16T10:11:24;100400.03;;;-0.65;100.00
80323;BME280;69636;52.372;13.610;2024-01-16T10:13:51;100397.78;;;-0.72;100.00
80323;BME280;69636;52.372;13.610;2024-01-16T10:16:19;100399.63;;;-0.74;100.00
80323;BME280;69636;52.372;13.610;2024-01-16T10:18:50;100395.38;;;-0.60;100.00
80323;BME280;69636;52.372;13.610;2024-01-16T10:21:30;100395.69;;;-0.37;100.00
80323;BME280;69636;52.372;13.610;2024-01-16T10:24:10;100399.50;;;-0.28;100.00
80323;BME280;69636;52.372;13.610;2024-01-16T10:26:57;100406.59;;;-0.30;100.00
80323;BME280;69636;52.372;13.610;2024-01-16T10:29:25;100408.41;;;-0.46;100.00
80323;BME280;69636;52.372;13.610;2024-01-16T10:32:09;100410.22;;;-0.32;100.00
80323;BME280;69636;52.372;13.610;2024-01-16T10:34:37;100409.72;;;-0.25;100.00
80323;BME280;69636;52.372;13.610;2024-01-16T10:37:04;100405.44;;;-0.40;100.00
80323;BME280;69636;52.372;13.610;2024-01-16T10:39:31;100407.69;;;-0.20;100.00
80323;BME280;69636;52.372;13.610;2024-01-16T10:42:15;100407.50;;;-0.17;100.00
80323;BME280;69636;52.372;13.610;2024-01-16T10:44:52;100402.72;;;0.04;100.00
80323;BME280;69636;52.372;13.610;2024-01-16T10:47:21;100404.69;;;0.15;100.00
80323;BME280;69636;52.372;13.610;2024-01-16T10:49:48;100404.13;;;0.24;100.00
80323;BME280;69636;52.372;13.610;2024-01-16T10:52:17;100401.94;;;0.30;100.00
80323;BME280;69636;52.372;13.610;2024-01-16T10:54:46;100398.16;;;0.22;100.00
80323;BME280;69636;52.372;13.610;2024-01-16T10:57:17;100397.69;;;0.15;100.00
80323;BME280;69636;52.372;13.610;2024-01-16T10:59:50;100398.66;;;0.41;100.00
80323;BME280;69636;52.372;13.610;2024-01-16T11:02:20;100392.81;;;0.64;100.00
80323;BME280;69636;52.372;13.610;2024-01-16T11:04:53;100393.16;;;0.73;100.00
80323;BME280;69636;52.372;13.610;2024-01-16T11:07:21;100396.22;;;0.92;100.00
80323;BME280;69636;52.372;13.610;2024-01-16T11:09:50;100400.31;;;0.96;100.00
80323;BME280;69636;52.372;13.610;2024-01-16T11:12:18;100399.16;;;0.60;100.00
80323;BME280;69636;52.372;13.610;2024-01-16T11:14:48;100399.44;;;0.29;100.00
80323;BME280;69636;52.372;13.610;2024-01-16T11:17:17;100398.91;;;0.10;100.00
80323;BME280;69636;52.372;13.610;2024-01-16T11:19:46;100400.69;;;0.09;100.00
80323;BME280;69636;52.372;13.610;2024-01-16T11:22:36;100408.44;;;-0.04;100.00
80323;BME280;69636;52.372;13.610;2024-01-16T11:25:08;100402.38;;;-0.18;100.00
80323;BME280;69636;52.372;13.610;2024-01-16T11:27:37;100402.66;;;-0.23;100.00
80323;BME280;69636;52.372;13.610;2024-01-16T11:30:06;100396.16;;;-0.30;100.00
80323;BME280;69636;52.372;13.610;2024-01-16T11:32:35;100393.38;;;-0.27;100.00
80323;BME280;69636;52.372;13.610;2024-01-16T11:35:05;100385.78;;;-0.17;100.00
80323;BME280;69636;52.372;13.610;2024-01-16T11:37:33;100384.41;;;-0.09;100.00
80323;BME280;69636;52.372;13.610;2024-01-16T11:40:23;100386.00;;;-0.06;100.00
80323;BME280;69636;52.372;13.610;2024-01-16T11:42:52;100385.69;;;-0.16;100.00
80323;BME280;69636;52.372;13.610;2024-01-16T11:45:48;100384.59;;;-0.12;100.00
80323;BME280;69636;52.372;13.610;2024-01-16T11:48:16;100391.00;;;-0.17;100.00
80323;BME280;69636;52.372;13.610;2024-01-16T11:50:44;100388.50;;;-0.19;100.00
80323;BME280;69636;52.372;13.610;2024-01-16T11:53:34;100376.84;;;-0.13;100.00
80323;BME280;69636;52.372;13.610;2024-01-16T11:56:42;100391.28;;;-0.08;100.00
80323;BME280;69636;52.372;13.610;2024-01-16T11:59:39;100384.03;;;-0.17;100.00
80323;BME280;69636;52.372;13.610;2024-01-16T12:02:14;100388.78;;;-0.09;100.00
80323;BME280;69636;52.372;13.610;2024-01-16T12:04:52;100376.84;;;-0.13;100.00
80323;BME280;69636;52.372;13.610;2024-01-16T12:07:19;100373.88;;;-0.21;100.00
80323;BME280;69636;52.372;13.610;2024-01-16T12:09:47;100373.59;;;-0.31;100.00
80323;BME280;69636;52.372;13.610;2024-01-16T12:12:15;100378.81;;;-0.31;100.00
80323;BME280;69636;52.372;13.610;2024-01-16T12:14:50;100376.22;;;-0.31;100.00
80323;BME280;69636;52.372;13.610;2024-01-16T12:17:18;100377.16;;;-0.32;100.00
80323;BME280;69636;52.372;13.610;2024-01-16T12:19:46;100381.63;;;-0.34;100.00
80323;BME280;69636;52.372;13.610;2024-01-16T12:22:14;100371.09;;;-0.32;100.00
80323;BME280;69636;52.372;13.610;2024-01-16T12:24:41;100370.59;;;-0.25;100.00
80323;BME280;69636;52.372;13.610;2024-01-16T12:27:09;100366.31;;;-0.26;100.00
80323;BME280;69636;52.372;13.610;2024-01-16T12:29:36;100357.38;;;-0.22;100.00
80323;BME280;69636;52.372;13.610;2024-01-16T12:32:09;100354.31;;;-0.14;100.00
80323;BME280;69636;52.372;13.610;2024-01-16T12:34:44;100349.56;;;-0.08;100.00
80323;BME280;69636;52.372;13.610;2024-01-16T12:37:11;100359.72;;;-0.03;100.00
80323;BME280;69636;52.372;13.610;2024-01-16T12:39:39;100344.66;;;0.15;100.00